createdAt,value
2022-08-26T00:00:02.531Z,0.00
2022-08-26T00:01:02.544Z,0.00
2022-08-26T00:02:02.562Z,0.00
2022-08-26T00:03:02.513Z,0.00
2022-08-26T00:04:02.524Z,0.00
2022-08-26T00:05:02.557Z,0.00
2022-08-26T00:06:02.544Z,0.00
2022-08-26T00:07:02.485Z,0.00
2022-08-26T00:08:02.481Z,0.00
2022-08-26T00:09:02.467Z,0.00
2022-08-26T00:10:03.467Z,0.00
2022-08-26T00:11:02.443Z,0.00
2022-08-26T00:12:02.462Z,0.00
2022-08-26T00:13:02.430Z,0.00
2022-08-26T00:14:02.423Z,0.00
2022-08-26T00:15:02.418Z,0.00
2022-08-26T00:16:02.416Z,0.00
2022-08-26T00:17:02.532Z,0.00
2022-08-26T00:18:02.423Z,0.00
2022-08-26T00:19:02.391Z,0.00
2022-08-26T00:20:02.384Z,0.00
2022-08-26T00:21:06.133Z,0.00
2022-08-26T00:22:02.386Z,0.00
2022-08-26T00:23:02.449Z,0.00
2022-08-26T00:24:02.352Z,0.00
2022-08-26T00:25:02.344Z,0.00
2022-08-26T00:26:02.338Z,0.00
2022-08-26T00:27:02.319Z,0.00
2022-08-26T00:28:02.318Z,0.00
2022-08-26T00:29:02.337Z,0.00
2022-08-26T00:30:02.314Z,0.00
2022-08-26T00:31:02.300Z,0.00
2022-08-26T00:32:02.376Z,0.00
2022-08-26T00:33:02.286Z,0.00
2022-08-26T00:34:02.289Z,0.00
2022-08-26T00:35:02.258Z,0.00
2022-08-26T00:36:02.261Z,0.00
2022-08-26T00:37:02.251Z,0.00
2022-08-26T00:38:02.244Z,0.00
2022-08-26T00:39:02.244Z,0.00
2022-08-26T00:40:05.232Z,0.00
2022-08-26T00:41:02.230Z,0.00
2022-08-26T00:42:02.205Z,0.00
2022-08-26T00:43:02.198Z,0.00
2022-08-26T00:44:03.258Z,0.00
2022-08-26T00:45:02.180Z,0.00
2022-08-26T00:46:03.245Z,0.00
2022-08-26T00:47:02.196Z,0.00
2022-08-26T00:48:02.174Z,0.00
2022-08-26T00:49:02.164Z,0.00
2022-08-26T00:50:02.188Z,0.00
2022-08-26T00:51:02.141Z,0.00
2022-08-26T00:52:02.122Z,0.00
2022-08-26T00:53:02.113Z,0.00
2022-08-26T00:54:02.125Z,0.00
2022-08-26T00:55:02.108Z,0.00
2022-08-26T00:56:02.087Z,0.00
2022-08-26T00:57:02.117Z,0.00
2022-08-26T00:58:02.065Z,0.00
2022-08-26T00:59:02.062Z,0.00
2022-08-26T01:00:02.057Z,0.00
2022-08-26T01:01:02.076Z,0.00
2022-08-26T01:02:02.731Z,0.00
2022-08-26T01:03:02.035Z,0.00
2022-08-26T01:04:02.021Z,0.00
2022-08-26T01:05:03.444Z,0.00
2022-08-26T01:06:02.003Z,0.00
2022-08-26T01:07:02.001Z,0.00
2022-08-26T01:08:02.020Z,0.00
2022-08-26T01:09:01.975Z,0.00
2022-08-26T01:10:02.004Z,0.00
2022-08-26T01:11:01.986Z,0.00
2022-08-26T01:12:01.965Z,0.00
2022-08-26T01:13:01.948Z,0.00
2022-08-26T01:14:01.960Z,0.00
2022-08-26T01:15:01.950Z,0.00
2022-08-26T01:16:01.987Z,0.00
2022-08-26T01:17:01.937Z,0.00
2022-08-26T01:18:01.917Z,0.00
2022-08-26T01:19:01.910Z,0.00
2022-08-26T01:20:01.900Z,0.00
2022-08-26T01:21:01.890Z,0.00
2022-08-26T01:22:01.905Z,0.00
2022-08-26T01:23:03.259Z,0.00
2022-08-26T01:24:01.870Z,0.00
2022-08-26T01:25:03.707Z,0.00
2022-08-26T01:26:01.845Z,0.00
2022-08-26T01:27:01.831Z,0.00
2022-08-26T01:28:01.860Z,0.00
2022-08-26T01:29:01.824Z,0.00
2022-08-26T01:30:01.880Z,0.00
2022-08-26T01:31:01.813Z,0.00
2022-08-26T01:32:01.819Z,0.00
2022-08-26T01:33:01.817Z,0.00
2022-08-26T01:34:01.782Z,0.00
2022-08-26T01:35:01.804Z,0.00
2022-08-26T01:36:01.767Z,0.00
2022-08-26T01:37:01.760Z,0.00
2022-08-26T01:38:01.757Z,0.00
2022-08-26T01:39:01.742Z,0.00
2022-08-26T01:40:01.802Z,0.00
2022-08-26T01:41:01.750Z,0.00
2022-08-26T01:42:03.233Z,0.00
2022-08-26T01:43:01.716Z,0.00
2022-08-26T01:44:01.713Z,0.00
2022-08-26T01:45:01.701Z,0.00
2022-08-26T01:46:01.727Z,0.00
2022-08-26T01:47:01.714Z,0.00
2022-08-26T01:48:01.687Z,0.00
2022-08-26T01:49:01.661Z,0.00
2022-08-26T01:50:01.683Z,0.00
2022-08-26T01:51:01.649Z,0.00
2022-08-26T01:52:01.661Z,0.00
2022-08-26T01:53:01.629Z,0.00
2022-08-26T01:54:01.628Z,0.00
2022-08-26T01:55:01.634Z,0.00
2022-08-26T01:56:01.615Z,0.00
2022-08-26T01:57:01.612Z,0.00
2022-08-26T01:58:01.628Z,0.00
2022-08-26T01:59:01.619Z,0.00
2022-08-26T02:00:01.586Z,0.00
2022-08-26T02:01:01.617Z,0.00
2022-08-26T02:02:01.566Z,0.00
2022-08-26T02:03:01.591Z,0.00
2022-08-26T02:04:01.564Z,0.00
2022-08-26T02:05:01.537Z,0.00
2022-08-26T02:06:01.543Z,0.00
2022-08-26T02:07:01.517Z,0.00
2022-08-26T02:08:01.512Z,0.00
2022-08-26T02:09:01.516Z,0.00
2022-08-26T02:10:01.493Z,0.00
2022-08-26T02:11:01.485Z,0.00
2022-08-26T02:12:01.483Z,0.00
2022-08-26T02:13:01.513Z,0.00
2022-08-26T02:14:01.466Z,0.00
2022-08-26T02:15:01.475Z,0.00
2022-08-26T02:16:01.487Z,0.00
2022-08-26T02:17:01.441Z,0.00
2022-08-26T02:18:01.439Z,0.00
2022-08-26T02:19:01.606Z,0.00
2022-08-26T02:20:01.434Z,0.00
2022-08-26T02:21:01.440Z,0.00
2022-08-26T02:22:01.385Z,0.00
2022-08-26T02:23:01.452Z,0.00
2022-08-26T02:24:01.372Z,0.00
2022-08-26T02:25:01.394Z,0.00
2022-08-26T02:26:01.363Z,0.00
2022-08-26T02:27:01.370Z,0.00
2022-08-26T02:28:01.364Z,0.00
2022-08-26T02:29:01.349Z,0.00
2022-08-26T02:30:01.351Z,0.00
2022-08-26T02:31:02.663Z,0.00
2022-08-26T02:32:01.310Z,0.00
2022-08-26T02:33:01.372Z,0.00
2022-08-26T02:34:01.309Z,0.00
2022-08-26T02:35:01.279Z,0.00
2022-08-26T02:36:01.277Z,0.00
2022-08-26T02:37:01.294Z,0.00
2022-08-26T02:38:01.262Z,0.00
2022-08-26T02:39:01.426Z,0.00
2022-08-26T02:40:01.270Z,0.00
2022-08-26T02:41:01.232Z,0.00
2022-08-26T02:42:01.226Z,0.00
2022-08-26T02:43:01.216Z,0.00
2022-08-26T02:44:01.201Z,0.00
2022-08-26T02:45:01.241Z,0.00
2022-08-26T02:46:02.417Z,0.00
2022-08-26T02:47:01.238Z,0.00
2022-08-26T02:48:01.178Z,0.00
2022-08-26T02:49:01.174Z,0.00
2022-08-26T02:50:01.161Z,0.00
2022-08-26T02:51:01.183Z,0.00
2022-08-26T02:52:01.849Z,0.00
2022-08-26T02:53:01.193Z,0.00
2022-08-26T02:54:01.131Z,0.00
2022-08-26T02:55:01.133Z,0.00
2022-08-26T02:56:01.112Z,0.00
2022-08-26T02:57:01.130Z,0.00
2022-08-26T02:58:01.104Z,0.00
2022-08-26T02:59:01.084Z,0.00
2022-08-26T03:00:01.147Z,0.00
2022-08-26T03:01:01.581Z,0.00
2022-08-26T03:02:01.086Z,0.00
2022-08-26T03:03:01.133Z,0.00
2022-08-26T03:04:01.051Z,0.00
2022-08-26T03:05:01.898Z,0.00
2022-08-26T03:06:01.037Z,0.00
2022-08-26T03:07:01.036Z,0.00
2022-08-26T03:08:01.017Z,0.00
2022-08-26T03:09:01.063Z,0.00
2022-08-26T03:10:01.005Z,0.00
2022-08-26T03:11:01.546Z,0.00
2022-08-26T03:12:00.995Z,0.00
2022-08-26T03:13:00.983Z,0.00
2022-08-26T03:14:01.740Z,0.00
2022-08-26T03:15:00.992Z,0.00
2022-08-26T03:16:01.004Z,0.00
2022-08-26T03:17:00.950Z,0.00
2022-08-26T03:18:00.938Z,0.00
2022-08-26T03:19:00.940Z,0.00
2022-08-26T03:20:00.982Z,0.00
2022-08-26T03:21:00.952Z,0.00
2022-08-26T03:22:00.918Z,0.00
2022-08-26T03:23:00.906Z,0.00
2022-08-26T03:24:00.896Z,0.00
2022-08-26T03:25:00.913Z,0.00
2022-08-26T03:26:00.898Z,0.00
2022-08-26T03:27:00.928Z,0.00
2022-08-26T03:28:01.869Z,0.00
2022-08-26T03:29:00.851Z,0.00
2022-08-26T03:30:00.850Z,0.00
2022-08-26T03:31:00.895Z,0.00
2022-08-26T03:32:00.859Z,0.00
2022-08-26T03:33:00.838Z,0.00
2022-08-26T03:34:00.822Z,0.00
2022-08-26T03:35:00.808Z,0.00
2022-08-26T03:36:00.884Z,0.00
2022-08-26T03:37:00.792Z,0.00
2022-08-26T03:38:00.814Z,0.00
2022-08-26T03:39:00.799Z,0.00
2022-08-26T03:40:00.847Z,0.00
2022-08-26T03:41:00.771Z,0.00
2022-08-26T03:42:00.759Z,0.00
2022-08-26T03:43:00.859Z,0.00
2022-08-26T03:44:01.835Z,1.00
2022-08-26T03:45:00.751Z,1.00
2022-08-26T03:46:00.734Z,1.00
2022-08-26T03:47:00.710Z,1.00
2022-08-26T03:48:00.711Z,0.00
2022-08-26T03:49:00.694Z,0.00
2022-08-26T03:50:00.719Z,1.00
2022-08-26T03:51:00.671Z,1.00
2022-08-26T03:52:00.680Z,1.00
2022-08-26T03:53:00.661Z,1.00
2022-08-26T03:54:00.664Z,2.00
2022-08-26T03:55:00.654Z,1.00
2022-08-26T03:56:00.667Z,2.00
2022-08-26T03:57:00.640Z,3.00
2022-08-26T03:58:00.630Z,3.00
2022-08-26T03:59:00.616Z,5.00
2022-08-26T04:00:00.610Z,6.00
2022-08-26T04:01:00.596Z,6.00
2022-08-26T04:02:00.653Z,7.00
2022-08-26T04:03:00.617Z,7.00
2022-08-26T04:04:00.937Z,9.00
2022-08-26T04:05:00.591Z,11.00
2022-08-26T04:06:00.560Z,15.00
2022-08-26T04:07:00.552Z,15.00
2022-08-26T04:08:00.575Z,19.00
2022-08-26T04:09:00.552Z,19.00
2022-08-26T04:10:00.534Z,24.00
2022-08-26T04:11:00.573Z,27.00
2022-08-26T04:12:00.546Z,35.00
2022-08-26T04:13:00.507Z,41.00
2022-08-26T04:14:00.504Z,48.00
2022-08-26T04:15:00.490Z,57.00
2022-08-26T04:16:00.650Z,64.00
2022-08-26T04:17:00.467Z,72.00
2022-08-26T04:18:00.487Z,80.00
2022-08-26T04:19:00.446Z,88.00
2022-08-26T04:20:00.493Z,97.00
2022-08-26T04:21:00.476Z,105.00
2022-08-26T04:22:00.433Z,114.00
2022-08-26T04:23:00.428Z,123.00
2022-08-26T04:24:00.462Z,131.00
2022-08-26T04:25:00.423Z,141.00
2022-08-26T04:26:00.421Z,151.00
2022-08-26T04:27:00.407Z,159.00
2022-08-26T04:28:00.393Z,170.00
2022-08-26T04:29:00.385Z,178.00
2022-08-26T04:30:00.467Z,185.00
2022-08-26T04:31:00.424Z,192.00
2022-08-26T04:32:00.357Z,202.00
2022-08-26T04:33:00.352Z,214.00
2022-08-26T04:34:00.350Z,229.00
2022-08-26T04:35:00.723Z,245.00
2022-08-26T04:36:00.342Z,262.00
2022-08-26T04:37:00.313Z,279.00
2022-08-26T04:38:00.311Z,299.00
2022-08-26T04:39:00.324Z,319.00
2022-08-26T04:40:00.409Z,340.00
2022-08-26T04:41:00.307Z,363.00
2022-08-26T04:42:00.281Z,384.00
2022-08-26T04:43:00.307Z,405.00
2022-08-26T04:44:00.264Z,428.00
2022-08-26T04:45:00.250Z,446.00
2022-08-26T04:46:00.322Z,458.00
2022-08-26T04:47:00.262Z,469.00
2022-08-26T04:48:00.233Z,487.00
2022-08-26T04:49:00.225Z,512.00
2022-08-26T04:50:00.214Z,541.00
2022-08-26T04:51:00.405Z,569.00
2022-08-26T04:52:00.210Z,599.00
2022-08-26T04:53:00.214Z,636.00
2022-08-26T04:54:00.186Z,667.00
2022-08-26T04:55:00.188Z,691.00
2022-08-26T04:56:00.157Z,706.00
2022-08-26T04:57:00.155Z,724.00
2022-08-26T04:58:00.154Z,751.00
2022-08-26T04:59:00.166Z,783.00
2022-08-26T05:00:00.161Z,812.00
2022-08-26T05:01:00.144Z,838.00
2022-08-26T05:02:00.176Z,858.00
2022-08-26T05:03:00.109Z,878.00
2022-08-26T05:04:00.172Z,901.00
2022-08-26T05:05:00.111Z,927.00
2022-08-26T05:06:00.097Z,950.00
2022-08-26T05:07:02.798Z,981.00
2022-08-26T05:08:00.077Z,1016.00
2022-08-26T05:09:00.092Z,1061.00
2022-08-26T05:10:00.065Z,1116.00
2022-08-26T05:11:00.050Z,1173.00
2022-08-26T05:12:00.052Z,1223.00
2022-08-26T05:13:00.029Z,1267.00
2022-08-26T05:14:02.359Z,1298.00
2022-08-26T05:15:00.033Z,1317.00
2022-08-26T05:16:01.415Z,1336.00
2022-08-26T05:17:00.007Z,1354.00
2022-08-26T05:18:00.105Z,1353.00
2022-08-26T05:18:59.990Z,1357.00
2022-08-26T05:19:59.978Z,1367.00
2022-08-26T05:20:59.999Z,1377.00
2022-08-26T05:21:59.968Z,1378.00
2022-08-26T05:22:59.952Z,1374.00
2022-08-26T05:23:59.994Z,1349.00
2022-08-26T05:24:59.938Z,1324.00
2022-08-26T05:26:00.554Z,1334.00
2022-08-26T05:26:59.993Z,1363.00
2022-08-26T05:27:59.900Z,1398.00
2022-08-26T05:28:59.917Z,1432.00
2022-08-26T05:29:59.891Z,1463.00
2022-08-26T05:30:59.951Z,1487.00
2022-08-26T05:31:59.900Z,1499.00
2022-08-26T05:32:59.879Z,1503.00
2022-08-26T05:33:59.860Z,1504.00
2022-08-26T05:34:59.866Z,1498.00
2022-08-26T05:35:59.858Z,1495.00
2022-08-26T05:36:59.845Z,1499.00
2022-08-26T05:37:59.853Z,1509.00
2022-08-26T05:38:59.823Z,1526.00
2022-08-26T05:39:59.898Z,1565.00
2022-08-26T05:40:59.815Z,1625.00
2022-08-26T05:41:59.808Z,1687.00
2022-08-26T05:42:59.836Z,1724.00
2022-08-26T05:43:59.945Z,1742.00
2022-08-26T05:44:59.788Z,1763.00
2022-08-26T05:45:59.824Z,1783.00
2022-08-26T05:46:59.771Z,1803.00
2022-08-26T05:47:59.791Z,1795.00
2022-08-26T05:48:59.846Z,1748.00
2022-08-26T05:49:59.743Z,1690.00
2022-08-26T05:50:59.734Z,1643.00
2022-08-26T05:51:59.717Z,1623.00
2022-08-26T05:52:59.709Z,1630.00
2022-08-26T05:53:59.724Z,1660.00
2022-08-26T05:54:59.713Z,1708.00
2022-08-26T05:55:59.684Z,1764.00
2022-08-26T05:56:59.680Z,1846.00
2022-08-26T05:57:59.670Z,1939.00
2022-08-26T05:58:59.877Z,2029.00
2022-08-26T05:59:59.656Z,2079.00
2022-08-26T06:00:59.701Z,2132.00
2022-08-26T06:01:59.712Z,2160.00
2022-08-26T06:02:59.744Z,2146.00
2022-08-26T06:04:01.299Z,2126.00
2022-08-26T06:04:59.630Z,2104.00
2022-08-26T06:05:59.602Z,2093.00
2022-08-26T06:06:59.617Z,2094.00
2022-08-26T06:07:59.584Z,2095.00
2022-08-26T06:08:59.618Z,2104.00
2022-08-26T06:10:28.272Z,2136.00
2022-08-26T06:11:00.561Z,2171.00
2022-08-26T06:11:59.582Z,2188.00
2022-08-26T06:13:06.033Z,2203.00
2022-08-26T06:14:03.796Z,2219.00
2022-08-26T06:14:59.535Z,2233.00
2022-08-26T06:15:59.609Z,2256.00
2022-08-26T06:16:59.542Z,2273.00
2022-08-26T06:17:59.510Z,2272.00
2022-08-26T06:18:59.501Z,2278.00
2022-08-26T06:19:59.560Z,2289.00
2022-08-26T06:20:59.491Z,2306.00
2022-08-26T06:21:59.475Z,2322.00
2022-08-26T06:22:59.486Z,2367.00
2022-08-26T06:23:59.475Z,2436.00
2022-08-26T06:24:59.460Z,2510.00
2022-08-26T06:25:59.441Z,2583.00
2022-08-26T06:26:59.491Z,2652.00
2022-08-26T06:27:59.418Z,2718.00
2022-08-26T06:28:59.417Z,2774.00
2022-08-26T06:29:59.438Z,2778.00
2022-08-26T06:30:59.481Z,2799.00
2022-08-26T06:31:59.420Z,2894.00
2022-08-26T06:32:59.453Z,3100.00
2022-08-26T06:33:59.416Z,3821.00
2022-08-26T06:34:59.409Z,7835.00
2022-08-26T06:35:59.367Z,17517.00
2022-08-26T06:36:59.369Z,8687.00
2022-08-26T06:37:59.372Z,7341.00
2022-08-26T06:38:59.379Z,7295.00
2022-08-26T06:39:59.403Z,6366.00
2022-08-26T06:40:59.850Z,4931.00
2022-08-26T06:41:59.356Z,5801.00
2022-08-26T06:42:59.307Z,4790.00
2022-08-26T06:43:59.300Z,4704.00
2022-08-26T06:44:59.301Z,4367.00
2022-08-26T06:45:59.341Z,4320.00
2022-08-26T06:46:59.318Z,4865.00
2022-08-26T06:47:59.274Z,5148.00
2022-08-26T06:48:59.270Z,6036.00
2022-08-26T06:49:59.254Z,4425.00
2022-08-26T06:50:59.272Z,4494.00
2022-08-26T06:51:59.237Z,4759.00
2022-08-26T06:52:59.251Z,5147.00
2022-08-26T06:53:59.281Z,6063.00
2022-08-26T06:54:59.237Z,9024.00
2022-08-26T06:55:59.214Z,12691.00
2022-08-26T06:56:59.302Z,12127.00
2022-08-26T06:57:59.217Z,13378.00
2022-08-26T06:58:59.195Z,13679.00
2022-08-26T06:59:59.184Z,14229.00
2022-08-26T07:01:03.061Z,13434.00
2022-08-26T07:02:00.222Z,13748.00
2022-08-26T07:02:59.224Z,6133.00
2022-08-26T07:03:59.152Z,6270.00
2022-08-26T07:04:59.144Z,6024.00
2022-08-26T07:05:59.139Z,4324.00
2022-08-26T07:06:59.180Z,4655.00
2022-08-26T07:07:59.123Z,9624.00
2022-08-26T07:08:59.109Z,12652.00
2022-08-26T07:09:59.106Z,13245.00
2022-08-26T07:10:59.103Z,14402.00
2022-08-26T07:11:59.111Z,17081.00
2022-08-26T07:12:59.088Z,18081.00
2022-08-26T07:13:59.073Z,17281.00
2022-08-26T07:14:59.072Z,18847.00
2022-08-26T07:16:02.972Z,19744.00
2022-08-26T07:16:59.239Z,20465.00
2022-08-26T07:17:59.035Z,20352.00
2022-08-26T07:18:59.116Z,14755.00
2022-08-26T07:19:59.029Z,10745.00
2022-08-26T07:20:59.006Z,5254.00
2022-08-26T07:22:00.162Z,4440.00
2022-08-26T07:22:59.022Z,4465.00
2022-08-26T07:24:01.301Z,4446.00
2022-08-26T07:24:59.303Z,4837.00
2022-08-26T07:25:58.975Z,6357.00
2022-08-26T07:26:58.964Z,14113.00
2022-08-26T07:27:59.021Z,14637.00
2022-08-26T07:28:59.444Z,14724.00
2022-08-26T07:29:59.157Z,4843.00
2022-08-26T07:30:59.185Z,5213.00
2022-08-26T07:32:00.038Z,8895.00
2022-08-26T07:32:58.934Z,18204.00
2022-08-26T07:33:58.920Z,15254.00
2022-08-26T07:34:58.913Z,4313.00
2022-08-26T07:35:58.886Z,4698.00
2022-08-26T07:36:58.952Z,4542.00
2022-08-26T07:38:00.826Z,4921.00
2022-08-26T07:38:58.933Z,10637.00
2022-08-26T07:39:59.733Z,4989.00
2022-08-26T07:40:58.842Z,4662.00
2022-08-26T07:41:58.832Z,4517.00
2022-08-26T07:42:58.834Z,4470.00
2022-08-26T07:43:58.812Z,4958.00
2022-08-26T07:44:58.817Z,4760.00
2022-08-26T07:45:58.824Z,4759.00
2022-08-26T07:46:58.799Z,11269.00
2022-08-26T07:47:58.794Z,5431.00
2022-08-26T07:48:58.803Z,5382.00
2022-08-26T07:49:58.769Z,6798.00
2022-08-26T07:50:58.804Z,16352.00
2022-08-26T07:51:58.763Z,6012.00
2022-08-26T07:52:58.742Z,15509.00
2022-08-26T07:53:58.730Z,14314.00
2022-08-26T07:54:58.784Z,8432.00
2022-08-26T07:55:58.733Z,7808.00
2022-08-26T07:56:58.715Z,6293.00
2022-08-26T07:57:58.713Z,5962.00
2022-08-26T07:58:58.694Z,6406.00
2022-08-26T07:59:58.685Z,6175.00
2022-08-26T08:00:58.736Z,5145.00
2022-08-26T08:01:59.056Z,4186.00
2022-08-26T08:02:58.664Z,4074.00
2022-08-26T08:03:58.647Z,3939.00
2022-08-26T08:04:58.770Z,3911.00
2022-08-26T08:05:58.667Z,4002.00
2022-08-26T08:06:58.655Z,4155.00
2022-08-26T08:08:26.737Z,4217.00
2022-08-26T08:08:59.607Z,4273.00
2022-08-26T08:09:58.616Z,4812.00
2022-08-26T08:10:58.598Z,5661.00
2022-08-26T08:11:58.654Z,6028.00
2022-08-26T08:12:58.597Z,6048.00
2022-08-26T08:13:58.573Z,5888.00
2022-08-26T08:14:58.568Z,6012.00
2022-08-26T08:15:58.554Z,4953.00
2022-08-26T08:16:58.673Z,4292.00
2022-08-26T08:18:00.699Z,4201.00
2022-08-26T08:18:58.566Z,4148.00
2022-08-26T08:19:58.531Z,4118.00
2022-08-26T08:21:10.907Z,4207.00
2022-08-26T08:21:59.559Z,4317.00
2022-08-26T08:22:58.511Z,4269.00
2022-08-26T08:23:58.545Z,4267.00
2022-08-26T08:24:58.477Z,4316.00
2022-08-26T08:25:58.556Z,4291.00
2022-08-26T08:26:58.601Z,4118.00
2022-08-26T08:27:58.499Z,4004.00
2022-08-26T08:28:58.448Z,3931.00
2022-08-26T08:29:58.448Z,3926.00
2022-08-26T08:30:58.486Z,3936.00
2022-08-26T08:31:58.802Z,3939.00
2022-08-26T08:32:58.432Z,3961.00
2022-08-26T08:33:58.417Z,3976.00
2022-08-26T08:34:58.403Z,3962.00
2022-08-26T08:35:58.412Z,3954.00
2022-08-26T08:36:58.410Z,3917.00
2022-08-26T08:37:58.384Z,3888.00
2022-08-26T08:38:58.387Z,3878.00
2022-08-26T08:39:58.429Z,3895.00
2022-08-26T08:40:58.350Z,3895.00
2022-08-26T08:41:58.630Z,3865.00
2022-08-26T08:42:58.338Z,3850.00
2022-08-26T08:43:58.325Z,3852.00
2022-08-26T08:44:58.986Z,3856.00
2022-08-26T08:45:58.309Z,3872.00
2022-08-26T08:46:58.302Z,3891.00
2022-08-26T08:47:58.509Z,3880.00
2022-08-26T08:48:59.010Z,3893.00
2022-08-26T08:49:58.283Z,3933.00
2022-08-26T08:50:58.276Z,3984.00
2022-08-26T08:51:58.266Z,4019.00
2022-08-26T08:52:58.371Z,4058.00
2022-08-26T08:53:58.969Z,4086.00
2022-08-26T08:54:58.234Z,4112.00
2022-08-26T08:55:58.239Z,4147.00
2022-08-26T08:56:59.844Z,4222.00
2022-08-26T08:58:02.275Z,4302.00
2022-08-26T08:58:58.220Z,4377.00
2022-08-26T08:59:58.214Z,4462.00
2022-08-26T09:00:58.281Z,4609.00
2022-08-26T09:01:58.254Z,4759.00
2022-08-26T09:02:58.190Z,4862.00
2022-08-26T09:03:58.173Z,4999.00
2022-08-26T09:04:58.162Z,5197.00
2022-08-26T09:05:58.153Z,5335.00
2022-08-26T09:07:58.205Z,5472.00
2022-08-26T09:08:58.133Z,5630.00
2022-08-26T09:09:58.133Z,5980.00
2022-08-26T09:10:58.111Z,6310.00
2022-08-26T09:11:58.120Z,6442.00
2022-08-26T09:12:58.109Z,6697.00
2022-08-26T09:13:58.116Z,6833.00
2022-08-26T09:14:58.096Z,7019.00
2022-08-26T09:15:58.076Z,7265.00
2022-08-26T09:16:58.127Z,7645.00
2022-08-26T09:17:58.068Z,8286.00
2022-08-26T09:18:58.083Z,8841.00
2022-08-26T09:19:58.039Z,9213.00
2022-08-26T09:20:58.034Z,8669.00
2022-08-26T09:21:58.039Z,8557.00
2022-08-26T09:22:58.017Z,8471.00
2022-08-26T09:24:05.596Z,8841.00
2022-08-26T09:24:58.033Z,9346.00
2022-08-26T09:25:57.991Z,9897.00
2022-08-26T09:26:57.996Z,10163.00
2022-08-26T09:27:57.988Z,10427.00
2022-08-26T09:28:57.970Z,10604.00
2022-08-26T09:29:57.987Z,10595.00
2022-08-26T09:30:58.465Z,10264.00
2022-08-26T09:31:57.940Z,11060.00
2022-08-26T09:32:57.936Z,11051.00
2022-08-26T09:33:57.921Z,11237.00
2022-08-26T09:34:57.922Z,11180.00
2022-08-26T09:35:57.918Z,11924.00
2022-08-26T09:36:57.950Z,11656.00
2022-08-26T09:37:57.912Z,11735.00
2022-08-26T09:38:57.892Z,11561.00
2022-08-26T09:39:57.933Z,11333.00
2022-08-26T09:40:59.346Z,11169.00
2022-08-26T09:41:57.880Z,11054.00
2022-08-26T09:42:57.878Z,11021.00
2022-08-26T09:43:57.857Z,11025.00
2022-08-26T09:44:57.882Z,11018.00
2022-08-26T09:45:59.709Z,11008.00
2022-08-26T09:46:57.840Z,11048.00
2022-08-26T09:47:57.847Z,10516.00
2022-08-26T09:48:58.523Z,10833.00
2022-08-26T09:49:57.811Z,10776.00
2022-08-26T09:50:57.808Z,10832.00
2022-08-26T09:51:57.795Z,10723.00
2022-08-26T09:52:57.919Z,10454.00
2022-08-26T09:53:57.813Z,9237.00
2022-08-26T09:54:57.766Z,10378.00
2022-08-26T09:55:57.766Z,10508.00
2022-08-26T09:56:57.763Z,10487.00
2022-08-26T09:58:02.255Z,10471.00
2022-08-26T09:58:58.775Z,10480.00
2022-08-26T09:59:57.727Z,10457.00
2022-08-26T10:00:57.766Z,10433.00
2022-08-26T10:01:57.791Z,10365.00
2022-08-26T10:02:58.159Z,10249.00
2022-08-26T10:03:57.797Z,10133.00
2022-08-26T10:04:57.694Z,10033.00
2022-08-26T10:05:58.701Z,9955.00
2022-08-26T10:06:57.735Z,9863.00
2022-08-26T10:07:57.723Z,9808.00
2022-08-26T10:08:57.687Z,9730.00
2022-08-26T10:09:57.668Z,9664.00
2022-08-26T10:10:57.646Z,9598.00
2022-08-26T10:11:57.667Z,9503.00
2022-08-26T10:12:57.648Z,9416.00
2022-08-26T10:13:57.624Z,9273.00
2022-08-26T10:14:57.618Z,9111.00
2022-08-26T10:15:57.622Z,8671.00
2022-08-26T10:16:57.692Z,8412.00
2022-08-26T10:17:57.612Z,8671.00
2022-08-26T10:19:00.149Z,8602.00
2022-08-26T10:19:57.853Z,7969.00
2022-08-26T10:20:57.575Z,7404.00
2022-08-26T10:21:57.574Z,6466.00
2022-08-26T10:22:57.559Z,5611.00
2022-08-26T10:23:57.582Z,5106.00
2022-08-26T10:24:57.543Z,4678.00
2022-08-26T10:25:59.164Z,4310.00
2022-08-26T10:26:57.547Z,4030.00
2022-08-26T10:27:57.569Z,3789.00
2022-08-26T10:28:57.516Z,3589.00
2022-08-26T10:29:57.525Z,3448.00
2022-08-26T10:30:57.549Z,3333.00
2022-08-26T10:32:02.525Z,3263.00
2022-08-26T10:32:58.485Z,3202.00
2022-08-26T10:34:00.368Z,3161.00
2022-08-26T10:34:57.491Z,3134.00
2022-08-26T10:35:57.475Z,3120.00
2022-08-26T10:37:13.874Z,3110.00
2022-08-26T10:37:58.461Z,3099.00
2022-08-26T10:38:57.442Z,3086.00
2022-08-26T10:39:59.176Z,3070.00
2022-08-26T10:40:57.472Z,3050.00
2022-08-26T10:41:57.426Z,3036.00
2022-08-26T10:42:57.420Z,3023.00
2022-08-26T10:43:57.414Z,3014.00
2022-08-26T10:44:58.498Z,3010.00
2022-08-26T10:45:57.477Z,3007.00
2022-08-26T10:46:57.381Z,3008.00
2022-08-26T10:47:57.385Z,3008.00
2022-08-26T10:48:57.385Z,3012.00
2022-08-26T10:50:02.861Z,3018.00
2022-08-26T10:50:58.381Z,3020.00
2022-08-26T10:51:57.356Z,3022.00
2022-08-26T10:52:57.333Z,3024.00
2022-08-26T10:53:57.400Z,3030.00
2022-08-26T10:54:57.321Z,3035.00
2022-08-26T10:55:57.342Z,3039.00
2022-08-26T10:56:57.302Z,3043.00
2022-08-26T10:57:57.367Z,3050.00
2022-08-26T10:58:57.304Z,3061.00
2022-08-26T10:59:57.280Z,3077.00
2022-08-26T11:00:57.356Z,3094.00
2022-08-26T11:01:57.304Z,3108.00
2022-08-26T11:02:57.250Z,3120.00
2022-08-26T11:03:58.120Z,3136.00
2022-08-26T11:04:57.252Z,3149.00
2022-08-26T11:05:57.241Z,3170.00
2022-08-26T11:06:57.230Z,3186.00
2022-08-26T11:07:57.242Z,3207.00
2022-08-26T11:08:57.219Z,3230.00
2022-08-26T11:09:57.206Z,3257.00
2022-08-26T11:10:58.948Z,3280.00
2022-08-26T11:11:57.202Z,3303.00
2022-08-26T11:12:57.204Z,3327.00
2022-08-26T11:13:57.189Z,3351.00
2022-08-26T11:14:59.038Z,3373.00
2022-08-26T11:15:57.187Z,3394.00
2022-08-26T11:16:57.180Z,3413.00
2022-08-26T11:17:57.157Z,3429.00
2022-08-26T11:18:57.139Z,3438.00
2022-08-26T11:20:01.989Z,3444.00
2022-08-26T11:20:58.130Z,3444.00
2022-08-26T11:21:57.120Z,3445.00
2022-08-26T11:22:59.543Z,3444.00
2022-08-26T11:23:57.126Z,3438.00
2022-08-26T11:24:57.079Z,3437.00
2022-08-26T11:25:57.493Z,3435.00
2022-08-26T11:26:57.068Z,3442.00
2022-08-26T11:27:57.069Z,3453.00
2022-08-26T11:28:57.077Z,3459.00
2022-08-26T11:29:57.069Z,3466.00
2022-08-26T11:30:58.328Z,3479.00
2022-08-26T11:31:57.241Z,3485.00
2022-08-26T11:32:57.034Z,3492.00
2022-08-26T11:33:57.027Z,3506.00
2022-08-26T11:34:57.016Z,3521.00
2022-08-26T11:35:57.029Z,3534.00
2022-08-26T11:36:56.992Z,3535.00
2022-08-26T11:37:57.000Z,3540.00
2022-08-26T11:38:57.001Z,3541.00
2022-08-26T11:39:57.481Z,3549.00
2022-08-26T11:40:57.012Z,3548.00
2022-08-26T11:41:57.772Z,3552.00
2022-08-26T11:42:56.979Z,3553.00
2022-08-26T11:43:56.952Z,3550.00
2022-08-26T11:44:58.036Z,3552.00
2022-08-26T11:45:57.000Z,3559.00
2022-08-26T11:46:56.909Z,3580.00
2022-08-26T11:47:56.924Z,3610.00
2022-08-26T11:48:56.908Z,3653.00
2022-08-26T11:49:56.911Z,3703.00
2022-08-26T11:50:56.921Z,3762.00
2022-08-26T11:51:56.889Z,3832.00
2022-08-26T11:52:56.877Z,3903.00
2022-08-26T11:53:56.879Z,3975.00
2022-08-26T11:54:56.865Z,4048.00
2022-08-26T11:55:56.849Z,4120.00
2022-08-26T11:56:56.880Z,4201.00
2022-08-26T11:57:56.840Z,4284.00
2022-08-26T11:58:56.855Z,4366.00
2022-08-26T11:59:56.830Z,4452.00
2022-08-26T12:00:56.815Z,4547.00
2022-08-26T12:01:56.813Z,4642.00
2022-08-26T12:02:56.832Z,4746.00
2022-08-26T12:03:58.466Z,4845.00
2022-08-26T12:04:56.801Z,4933.00
2022-08-26T12:05:56.775Z,5025.00
2022-08-26T12:06:56.787Z,5117.00
2022-08-26T12:07:56.807Z,5225.00
2022-08-26T12:08:56.840Z,5355.00
2022-08-26T12:09:56.743Z,5504.00
2022-08-26T12:10:56.748Z,5641.00
2022-08-26T12:11:58.162Z,5790.00
2022-08-26T12:12:56.757Z,5966.00
2022-08-26T12:13:56.739Z,6146.00
2022-08-26T12:14:56.841Z,6366.00
2022-08-26T12:15:56.706Z,6615.00
2022-08-26T12:16:56.761Z,6927.00
2022-08-26T12:17:57.593Z,7271.00
2022-08-26T12:18:56.686Z,7595.00
2022-08-26T12:19:56.686Z,7946.00
2022-08-26T12:20:57.112Z,8189.00
2022-08-26T12:21:56.653Z,8449.00
2022-08-26T12:22:56.714Z,8600.00
2022-08-26T12:23:56.724Z,8661.00
2022-08-26T12:24:56.648Z,8656.00
2022-08-26T12:25:56.653Z,8650.00
2022-08-26T12:26:56.617Z,8586.00
2022-08-26T12:27:56.607Z,8643.00
2022-08-26T12:28:57.507Z,8914.00